Time;durP1;ratioP1;P1;durP2;ratioP2;P2;SDS_P1;SDS_P2;PMS_P1;PMS_P2;Temp;Humidity;BMP_temperature;BMP_pressure;BME280_temperature;BME280_humidity;BME280_pressure;Samples;Min_cycle;Max_cycle;Signal;HPM_P1;HPM_P2
2021/10/26 00:00:13;;;;;;;10.32;5.13;;;11.60;99.90;;;;;;5069649;28;20366;-85
2021/10/26 00:02:39;;;;;;;9.38;4.43;;;11.70;99.90;;;;;;5066958;28;20052;-83
2021/10/26 00:05:06;;;;;;;8.90;4.25;;;11.60;99.90;;;;;;5085300;28;20044;-82
2021/10/26 00:07:33;;;;;;;8.23;4.45;;;;;;;;;;5083876;28;20029;-81
2021/10/26 00:09:59;;;;;;;10.57;4.53;;;;;;;;;;5069546;28;20875;-82
2021/10/26 00:12:25;;;;;;;8.40;4.47;;;;;;;;;;5082687;28;20040;-81
2021/10/26 00:14:52;;;;;;;7.07;4.25;;;;;;;;;;5085769;28;20036;-85
2021/10/26 00:17:18;;;;;;;12.40;4.82;;;;;;;;;;5070045;28;20036;-81
2021/10/26 00:19:44;;;;;;;9.60;4.82;;;;;;;;;;5086783;28;20029;-82
2021/10/26 00:22:16;;;;;;;7.93;4.25;;;11.70;99.90;;;;;;5070904;28;20028;-82
2021/10/26 00:24:47;;;;;;;7.90;4.03;;;11.60;99.90;;;;;;5081070;28;20055;-85
2021/10/26 00:27:13;;;;;;;8.50;4.65;;;;;;;;;;5071456;28;20466;-85
2021/10/26 00:29:39;;;;;;;8.98;4.47;;;;;;;;;;5084058;28;20042;-81
2021/10/26 00:32:05;;;;;;;10.30;4.53;;;;;;;;;;5082269;28;20059;-83
2021/10/26 00:34:34;;;;;;;8.50;4.38;;;;;;;;;;5069838;28;20466;-82
2021/10/26 00:37:00;;;;;;;8.23;4.80;;;;;;;;;;5082277;28;20037;-81
2021/10/26 00:39:26;;;;;;;5.85;3.45;;;;;;;;;;5082993;28;20039;-79
2021/10/26 00:41:57;;;;;;;7.82;4.05;;;;;;;;;;5084182;28;20020;-80
2021/10/26 00:44:28;;;;;;;7.90;3.90;;;;;;;;;;5084600;28;20036;-81
2021/10/26 00:46:54;;;;;;;7.03;3.95;;;;;;;;;;5074227;28;20020;-83
2021/10/26 00:49:20;;;;;;;9.32;4.20;;;;;;;;;;5071905;28;20036;-81
2021/10/26 00:51:46;;;;;;;7.90;4.20;;;11.70;99.90;;;;;;5086731;28;20059;-82
2021/10/26 00:54:12;;;;;;;5.35;3.60;;;;;;;;;;5074348;28;20028;-83
2021/10/26 00:56:38;;;;;;;7.97;4.10;;;;;;;;;;5082992;28;20501;-81
2021/10/26 00:59:04;;;;;;;8.75;4.20;;;;;;;;;;5076115;28;20020;-83
2021/10/26 01:01:30;;;;;;;7.40;4.13;;;11.70;99.90;;;;;;5072254;28;20082;-81
2021/10/26 01:03:56;;;;;;;8.98;3.95;;;;;;;;;;5088180;28;20036;-81
2021/10/26 01:06:25;;;;;;;9.57;4.53;;;11.70;99.90;;;;;;5073342;28;20487;-80
2021/10/26 01:08:51;;;;;;;9.27;4.25;;;11.90;99.90;;;;;;5069089;28;20032;-79
2021/10/26 01:11:17;;;;;;;9.05;4.32;;;;;;;;;;5073537;28;20021;-81
2021/10/26 01:13:47;;;;;;;7.40;3.80;;;11.70;99.90;;;;;;5080605;28;20068;-83
2021/10/26 01:16:12;;;;;;;8.10;4.00;;;14.50;99.90;;;;;;5085941;28;20190;-83
2021/10/26 01:18:38;;;;;;;9.60;4.47;;;;;;;;;;5069651;28;20087;-79
2021/10/26 01:21:04;;;;;;;7.63;4.03;;;;;;;;;;5085825;28;20028;-82
2021/10/26 01:23:32;;;;;;;8.60;4.05;;;11.70;99.90;;;;;;5088664;28;20103;-82
2021/10/26 01:26:01;;;;;;;9.30;4.15;;;11.60;99.90;;;;;;5071226;28;20024;-84
2021/10/26 01:28:27;;;;;;;10.93;4.43;;;;;;;;;;5073552;28;20016;-84
2021/10/26 01:30:55;;;;;;;8.43;4.15;;;11.60;99.90;;;;;;5082250;28;20032;-88
2021/10/26 01:33:21;;;;;;;8.27;4.20;;;;;;;;;;5069141;28;20028;-83
2021/10/26 01:35:48;;;;;;;7.10;4.18;;;11.60;99.90;;;;;;5078166;28;20033;-85
2021/10/26 01:38:16;;;;;;;6.43;4.07;;;11.60;99.90;;;;;;5070221;28;20025;-84
2021/10/26 01:40:42;;;;;;;8.23;3.95;;;14.80;99.90;;;;;;5089480;28;20051;-80
2021/10/26 01:43:08;;;;;;;9.13;4.20;;;11.60;99.90;;;;;;5071122;28;20021;-80
2021/10/26 01:45:34;;;;;;;7.28;4.22;;;;;;;;;;5067633;28;20031;-82
2021/10/26 01:48:00;;;;;;;8.95;4.07;;;;;;;;;;5065308;28;20029;-83
2021/10/26 01:50:26;;;;;;;7.78;4.05;;;;;;;;;;5071878;28;21021;-86
2021/10/26 01:52:52;;;;;;;8.90;3.83;;;;;;;;;;5082767;28;20111;-83
2021/10/26 01:55:21;;;;;;;9.48;4.43;;;11.70;99.90;;;;;;5070527;28;20028;-83
2021/10/26 01:57:51;;;;;;;8.68;3.78;;;11.70;99.90;;;;;;5067962;28;20033;-85
2021/10/26 02:00:18;;;;;;;6.00;3.78;;;11.70;99.90;;;;;;5068026;28;20025;-80
2021/10/26 02:02:48;;;;;;;10.07;4.63;;;11.70;99.90;;;;;;5074149;28;20021;-83
2021/10/26 02:05:17;;;;;;;11.60;4.95;;;11.70;99.90;;;;;;5083359;28;20041;-84
2021/10/26 02:07:46;;;;;;;9.60;4.15;;;14.20;99.90;;;;;;5066982;28;20028;-80
2021/10/26 02:10:16;;;;;;;13.07;6.60;;;;;;;;;;5066200;28;20029;-84
2021/10/26 02:12:42;;;;;;;9.05;4.43;;;;;;;;;;5080418;28;20052;-82
2021/10/26 02:15:08;;;;;;;11.88;5.00;;;;;;;;;;5068450;28;20513;-81
2021/10/26 02:17:37;;;;;;;9.70;4.85;;;11.70;99.90;;;;;;5070829;28;20028;-83
2021/10/26 02:20:06;;;;;;;8.23;4.35;;;11.70;99.90;;;;;;5067390;28;20100;-84
2021/10/26 02:22:32;;;;;;;9.18;4.30;;;11.80;99.90;;;;;;5069798;28;20020;-81
2021/10/26 02:24:57;;;;;;;10.02;3.92;;;13.40;99.90;;;;;;5064493;28;20083;-81
2021/10/26 02:27:23;;;;;;;6.45;4.05;;;11.80;99.90;;;;;;5068861;28;20025;-83
2021/10/26 02:29:51;;;;;;;9.65;4.30;;;11.70;99.90;;;;;;5084767;28;20017;-82
2021/10/26 02:32:17;;;;;;;7.90;4.10;;;;;;;;;;5085635;28;20028;-85
2021/10/26 02:34:47;;;;;;;6.63;3.97;;;;;;;;;;5082683;28;20036;-81
2021/10/26 02:37:15;;;;;;;10.00;4.32;;;;;;;;;;5072336;28;20133;-81
2021/10/26 02:39:41;;;;;;;7.10;3.92;;;;;;;;;;5080308;28;20029;-78
2021/10/26 02:42:07;;;;;;;8.57;4.55;;;;;;;;;;5081286;28;20055;-81
2021/10/26 02:44:33;;;;;;;9.98;4.40;;;;;;;;;;5072371;28;20100;-84
2021/10/26 02:46:59;;;;;;;9.32;4.00;;;11.60;99.90;;;;;;5078655;28;20052;-83
2021/10/26 02:49:25;;;;;;;9.73;4.40;;;;;;;;;;5069775;28;20032;-84
2021/10/26 02:51:51;;;;;;;9.93;4.30;;;11.50;99.90;;;;;;5076813;28;20046;-83
2021/10/26 02:54:19;;;;;;;10.10;5.10;;;11.50;99.90;;;;;;5071839;28;20056;-82
2021/10/26 02:56:45;;;;;;;8.68;4.03;;;;;;;;;;5074488;28;20092;-83
2021/10/26 02:59:11;;;;;;;9.70;4.15;;;11.50;99.90;;;;;;5075013;28;20360;-83
2021/10/26 03:01:37;;;;;;;9.63;4.10;;;;;;;;;;5078264;28;20029;-80
2021/10/26 03:04:04;;;;;;;8.73;4.53;;;;;;;;;;5073106;28;20036;-80
2021/10/26 03:06:30;;;;;;;12.15;5.22;;;;;;;;;;5071545;28;20025;-81
2021/10/26 03:08:56;;;;;;;7.82;4.15;;;;;;;;;;5085252;28;20025;-81
2021/10/26 03:11:48;;;;;;;8.38;4.28;;;11.50;99.90;;;;;;5076029;28;20040;-82
2021/10/26 03:14:14;;;;;;;9.75;4.07;;;;;;;;;;5087101;28;20378;-82
2021/10/26 03:16:40;;;;;;;8.63;3.78;;;;;;;;;;5089038;28;20162;-82
2021/10/26 03:19:06;;;;;;;11.80;5.05;;;11.60;99.90;;;;;;5071643;28;20029;-83
2021/10/26 03:21:39;;;;;;;5.80;3.70;;;11.60;99.90;;;;;;5081366;28;20104;-81
2021/10/26 03:24:08;;;;;;;7.93;4.28;;;11.60;99.90;;;;;;5072395;28;20115;-81
2021/10/26 03:26:34;;;;;;;9.05;3.83;;;;;;;;;;5086589;28;20033;-80
2021/10/26 03:29:00;;;;;;;10.15;4.30;;;;;;;;;;5090170;28;20512;-81
2021/10/26 03:31:27;;;;;;;7.28;3.63;;;11.60;99.90;;;;;;5088853;28;20047;-79
2021/10/26 03:33:55;;;;;;;9.10;4.55;;;12.70;99.90;;;;;;5087179;28;20096;-80
2021/10/26 03:36:21;;;;;;;8.90;3.83;;;11.60;99.90;;;;;;5072819;28;20026;-82
2021/10/26 03:38:51;;;;;;;8.32;4.20;;;11.60;99.90;;;;;;5087742;28;20028;-84
2021/10/26 03:41:19;;;;;;;8.05;4.05;;;13.60;99.90;;;;;;5081948;28;20029;-83
2021/10/26 03:43:46;;;;;;;9.15;4.45;;;;;;;;;;5081348;28;20037;-83
2021/10/26 03:46:13;;;;;;;10.57;4.45;;;;;;;;;;5087598;28;20028;-85
2021/10/26 03:48:39;;;;;;;11.30;4.80;;;11.50;99.90;;;;;;5068409;28;20111;-80
2021/10/26 03:51:05;;;;;;;6.43;4.18;;;10.40;99.90;;;;;;5086320;28;20092;-82
2021/10/26 03:53:30;;;;;;;8.82;4.50;;;14.00;99.90;;;;;;5069482;28;20039;-85
2021/10/26 03:55:59;;;;;;;12.32;5.22;;;;;;;;;;5080394;28;20028;-85
2021/10/26 03:58:24;;;;;;;7.10;4.47;;;11.60;99.90;;;;;;5068474;28;20037;-81
2021/10/26 04:00:51;;;;;;;10.55;4.97;;;;;;;;;;5063089;28;20036;-82
2021/10/26 04:03:19;;;;;;;9.77;5.03;;;11.60;99.90;;;;;;5073609;28;20036;-80
2021/10/26 04:11:10;;;;;;;10.70;5.53;;;11.50;99.90;;;;;;5071239;28;20050;-83
2021/10/26 04:13:39;;;;;;;10.95;5.55;;;11.40;99.90;;;;;;5077402;28;20017;-82
2021/10/26 04:16:05;;;;;;;12.02;5.50;;;;;;;;;;5072811;28;20029;-82
2021/10/26 04:18:31;;;;;;;11.00;5.10;;;11.50;99.90;;;;;;5082734;28;20024;-83
2021/10/26 04:20:57;;;;;;;10.05;5.40;;;;;;;;;;5092275;28;20040;-84
2021/10/26 04:23:23;;;;;;;10.02;5.32;;;;;;;;;;5073245;28;20052;-81
2021/10/26 04:25:50;;;;;;;14.02;5.75;;;;;;;;;;5074639;28;20024;-79
2021/10/26 04:28:21;;;;;;;12.27;5.70;;;11.40;99.90;;;;;;5081118;28;20078;-81
2021/10/26 04:30:47;;;;;;;13.60;6.72;;;;;;;;;;5081121;28;20055;-80
2021/10/26 04:33:14;;;;;;;10.00;5.38;;;;;;;;;;5076350;28;20041;-80
2021/10/26 04:35:40;;;;;;;10.02;5.47;;;;;;;;;;5085984;28;20529;-83
2021/10/26 04:38:06;;;;;;;12.35;5.88;;;11.30;99.90;;;;;;5078309;28;20513;-82
2021/10/26 04:40:35;;;;;;;7.78;5.28;;;11.30;99.90;;;;;;5075879;28;20021;-81
2021/10/26 04:43:01;;;;;;;11.30;5.72;;;;;;;;;;5074384;28;20029;-80
2021/10/26 04:45:32;;;;;;;10.27;5.72;;;11.30;99.90;;;;;;5087476;28;20445;-81
2021/10/26 04:47:57;;;;;;;;;;;11.30;99.90;;;;;;5079822;28;20020;-81
2021/10/26 04:50:23;;;;;;;11.73;6.25;;;11.30;99.90;;;;;;5073379;28;20828;-80
2021/10/26 04:52:50;;;;;;;12.45;5.93;;;;;;;;;;5077740;28;20025;-82
2021/10/26 04:55:19;;;;;;;10.45;5.60;;;11.30;99.90;;;;;;5078778;28;20094;-81
2021/10/26 04:57:45;;;;;;;9.80;6.28;;;11.50;99.90;;;;;;5078259;28;20020;-82
2021/10/26 05:00:12;;;;;;;10.07;6.28;;;11.30;99.90;;;;;;5074314;28;20508;-84
2021/10/26 05:02:38;;;;;;;11.90;6.47;;;11.30;99.90;;;;;;5092311;28;20028;-81
2021/10/26 05:05:05;;;;;;;10.82;6.90;;;11.60;99.90;;;;;;5090383;28;20048;-82
2021/10/26 05:07:31;;;;;;;13.52;7.10;;;;;;;;;;5072629;28;20116;-82
2021/10/26 05:09:57;;;;;;;15.70;7.68;;;;;;;;;;5086761;28;20470;-83
2021/10/26 05:12:23;;;;;;;12.38;7.25;;;;;;;;;;5073608;28;20077;-81
2021/10/26 05:14:51;;;;;;;12.55;7.38;;;;;;;;;;5090443;28;20037;-81
2021/10/26 05:17:23;;;;;;;12.15;6.90;;;11.20;99.90;;;;;;5080519;28;20029;-82
2021/10/26 05:19:51;;;;;;;11.32;7.30;;;11.20;99.90;;;;;;5078234;28;20027;-83
2021/10/26 05:22:21;;;;;;;9.32;6.95;;;11.20;99.90;;;;;;5078997;28;20024;-81
2021/10/26 05:24:47;;;;;;;9.25;6.45;;;12.20;99.90;;;;;;5087321;28;20120;-81
2021/10/26 05:27:13;;;;;;;10.13;6.88;;;;;;;;;;5074775;28;20067;-83
2021/10/26 05:29:42;;;;;;;11.63;6.80;;;11.20;99.90;;;;;;5076137;28;20115;-82
2021/10/26 05:32:09;;;;;;;10.43;6.70;;;;;;;;;;5083198;28;20032;-82
2021/10/26 05:34:39;;;;;;;10.50;6.95;;;11.20;99.90;;;;;;5085279;28;20081;-80
2021/10/26 05:37:06;;;;;;;11.25;7.43;;;11.20;99.90;;;;;;5075507;28;20039;-84
2021/10/26 05:39:36;;;;;;;17.42;7.43;;;11.30;99.90;;;;;;5077247;28;20035;-83
2021/10/26 05:42:02;;;;;;;8.73;6.05;;;;;;;;;;5076445;28;20059;-79
2021/10/26 05:44:28;;;;;;;10.52;5.82;;;;;;;;;;5080378;28;20024;-81
2021/10/26 05:46:53;;;;;;;10.75;6.03;;;11.30;99.90;;;;;;5085782;28;20051;-80
2021/10/26 05:49:19;;;;;;;13.45;6.38;;;11.30;99.90;;;;;;5079511;28;20024;-81
2021/10/26 05:51:45;;;;;;;11.68;5.63;;;;;;;;;;5066172;28;20474;-80
2021/10/26 21:11:30;;;;;;;11.38;6.05;;;10.30;99.90;;;;;;5129048;27;20409;-82
2021/10/26 21:13:57;;;;;;;10.35;6.05;;;10.10;99.90;;;;;;5128245;27;20027;-83
2021/10/26 21:16:23;;;;;;;11.75;5.90;;;10.00;99.90;;;;;;5116829;28;20129;-85
2021/10/26 21:18:50;;;;;;;14.45;6.97;;;10.20;99.90;;;;;;5109690;28;20020;-85
2021/10/26 21:21:19;;;;;;;11.75;6.53;;;10.40;99.90;;;;;;5112198;28;20024;-85
2021/10/26 21:23:46;;;;;;;10.05;6.18;;;10.10;99.90;;;;;;5122207;27;20107;-84
2021/10/26 21:26:12;;;;;;;13.10;7.03;;;10.10;99.90;;;;;;5113257;28;20044;-87
2021/10/26 21:28:45;;;;;;;14.95;7.63;;;9.90;99.90;;;;;;5109587;28;20024;-82
2021/10/26 21:31:11;;;;;;;15.18;7.78;;;10.10;99.90;;;;;;5113851;28;20057;-86
2021/10/26 21:33:39;;;;;;;9.73;6.50;;;9.90;99.90;;;;;;5111687;28;20020;-85
2021/10/26 21:36:23;;;;;;;14.32;8.05;;;9.90;99.90;;;;;;5112941;28;20100;-87
2021/10/26 21:38:49;;;;;;;12.52;7.65;;;9.80;99.90;;;;;;5110730;28;20069;-82
2021/10/26 21:41:14;;;;;;;13.00;7.53;;;9.80;99.90;;;;;;5100787;28;20107;-87
2021/10/26 21:43:40;;;;;;;14.43;7.63;;;9.80;99.90;;;;;;5109832;28;20054;-83
2021/10/26 21:46:06;;;;;;;12.30;7.22;;;10.20;99.90;;;;;;5108893;28;20238;-86
2021/10/26 21:48:32;;;;;;;16.42;7.57;;;9.80;99.90;;;;;;5114731;28;20026;-84
2021/10/26 21:50:57;;;;;;;16.50;7.95;;;9.80;99.90;;;;;;5107657;28;20028;-85
2021/10/26 21:53:23;;;;;;;12.65;7.53;;;9.90;99.90;;;;;;5111664;28;20048;-82
2021/10/26 21:55:51;;;;;;;14.23;7.50;;;9.80;99.90;;;;;;5110208;28;20027;-88
2021/10/26 21:58:17;;;;;;;14.32;7.47;;;9.80;99.90;;;;;;5106823;28;20023;-84
2021/10/26 22:00:43;;;;;;;14.73;7.28;;;9.80;99.90;;;;;;5112115;28;20491;-86
2021/10/26 22:03:08;;;;;;;13.68;7.70;;;9.80;99.90;;;;;;5105076;28;20039;-84
2021/10/26 22:05:34;;;;;;;14.85;7.90;;;11.20;99.90;;;;;;5110667;28;20031;-87
2021/10/26 22:08:02;;;;;;;13.48;7.25;;;9.80;99.90;;;;;;5111531;28;20028;-85
2021/10/26 22:10:30;;;;;;;11.93;7.45;;;9.90;99.90;;;;;;5104360;28;20031;-82
2021/10/26 22:12:57;;;;;;;13.65;7.63;;;9.80;99.90;;;;;;5117925;28;20044;-82
2021/10/26 22:15:23;;;;;;;15.48;7.38;;;9.80;99.90;;;;;;5111287;28;20028;-84
2021/10/26 22:17:53;;;;;;;13.50;7.60;;;9.90;99.90;;;;;;5110029;28;20050;-83
2021/10/26 22:20:18;;;;;;;14.50;6.65;;;9.90;99.90;;;;;;5106735;28;20016;-85
2021/10/26 22:22:45;;;;;;;14.02;7.13;;;9.70;99.90;;;;;;5094620;28;20688;-86
2021/10/26 22:25:11;;;;;;;14.45;7.47;;;9.80;99.90;;;;;;5092796;28;20020;-84
2021/10/26 22:27:37;;;;;;;13.73;7.57;;;9.80;99.90;;;;;;5092102;28;20549;-84
2021/10/26 22:30:07;;;;;;;11.80;7.28;;;9.80;99.90;;;;;;5092030;28;20035;-83
2021/10/26 22:32:34;;;;;;;12.93;7.05;;;9.80;99.90;;;;;;5087758;28;20055;-84
2021/10/26 22:35:06;;;;;;;12.05;7.30;;;9.90;99.90;;;;;;5095861;28;20472;-84
2021/10/26 22:37:35;;;;;;;13.60;7.80;;;9.80;99.90;;;;;;5092466;28;20016;-83
2021/10/26 22:40:01;;;;;;;14.00;7.43;;;9.80;99.90;;;;;;5090983;28;20162;-83
2021/10/26 22:42:27;;;;;;;13.50;7.38;;;9.80;99.90;;;;;;5094104;28;20032;-86
2021/10/26 22:44:53;;;;;;;16.17;7.15;;;9.80;99.90;;;;;;5095757;28;20028;-83
2021/10/26 22:47:19;;;;;;;11.23;6.47;;;9.80;99.90;;;;;;5091823;28;20035;-85
2021/10/26 22:49:44;;;;;;;12.07;7.00;;;9.90;99.90;;;;;;5096515;28;20046;-84
2021/10/26 22:52:10;;;;;;;13.13;6.55;;;9.90;99.90;;;;;;5090422;28;20024;-83
2021/10/26 22:54:37;;;;;;;13.35;8.48;;;9.90;99.90;;;;;;5094220;28;20387;-84
2021/10/26 22:57:04;;;;;;;14.80;7.03;;;10.00;99.90;;;;;;5088688;28;20048;-84
2021/10/26 22:59:30;;;;;;;13.73;7.00;;;10.00;99.90;;;;;;5093363;28;20031;-85
2021/10/26 23:01:56;;;;;;;9.63;6.22;;;10.00;99.90;;;;;;5095914;28;20471;-84
2021/10/26 23:04:21;;;;;;;11.70;6.50;;;10.20;99.90;;;;;;5096044;28;20035;-85
2021/10/26 23:06:47;;;;;;;13.85;7.40;;;10.10;99.90;;;;;;5093128;28;20028;-84
2021/10/26 23:09:16;;;;;;;12.25;7.05;;;10.20;99.90;;;;;;5091462;28;20032;-82
2021/10/26 23:11:45;;;;;;;13.93;7.13;;;10.10;99.90;;;;;;5093819;28;20409;-83
2021/10/26 23:14:12;;;;;;;12.10;7.10;;;10.10;99.90;;;;;;5091925;28;20102;-86
2021/10/26 23:16:38;;;;;;;12.82;7.10;;;10.10;99.90;;;;;;5093542;28;20024;-85
2021/10/26 23:19:04;;;;;;;14.50;7.38;;;10.20;99.90;;;;;;5094495;28;20306;-85
2021/10/26 23:21:30;;;;;;;11.63;7.00;;;10.10;99.90;;;;;;5096080;28;20533;-86
2021/10/26 23:23:55;;;;;;;11.63;7.13;;;10.20;99.90;;;;;;5091471;28;20658;-83
2021/10/26 23:26:21;;;;;;;11.98;7.40;;;10.10;99.90;;;;;;5093072;28;20026;-84
2021/10/26 23:28:47;;;;;;;12.57;7.28;;;10.80;99.90;;;;;;5093465;28;20017;-84
2021/10/26 23:31:13;;;;;;;15.18;7.97;;;10.10;99.90;;;;;;5091148;28;20035;-83
2021/10/26 23:33:38;;;;;;;10.85;7.22;;;10.00;99.90;;;;;;5087266;28;20025;-86
2021/10/26 23:36:04;;;;;;;13.77;7.88;;;10.00;99.90;;;;;;5096619;28;20028;-84
2021/10/26 23:38:31;;;;;;;17.00;7.65;;;10.00;99.90;;;;;;5091092;28;20027;-85
2021/10/26 23:40:57;;;;;;;15.15;8.02;;;9.90;99.90;;;;;;5095421;28;20053;-86
2021/10/26 23:43:23;;;;;;;13.02;7.80;;;9.90;99.90;;;;;;5094068;28;20026;-83
2021/10/26 23:45:49;;;;;;;13.45;7.90;;;9.90;99.90;;;;;;5094435;28;20622;-84
2021/10/26 23:48:15;;;;;;;12.98;8.02;;;10.00;99.90;;;;;;5090693;28;20035;-84
2021/10/26 23:50:41;;;;;;;12.00;7.70;;;9.90;99.90;;;;;;5103954;28;20049;-83
2021/10/26 23:53:08;;;;;;;12.82;8.60;;;9.90;99.90;;;;;;5103154;28;20090;-82
2021/10/26 23:55:34;;;;;;;13.38;8.52;;;9.90;99.90;;;;;;5093532;28;20029;-83
2021/10/26 23:57:59;;;;;;;14.27;7.95;;;10.20;99.90;;;;;;5098442;28;20023;-85
